Startpagina
METAR-TAF:

METAR-TAF

Vliegvelden :

Cape Town International Airport

Kaapstad, Zuid-Afrika

breedte: 33-59S, lengte: 018-36E, hoogte: 42 m

Actueel weer

Dit bericht is 16 minuten geleden gemaakt, om 12:00 UTC
Wind 20 kt uit het zuiden
Temperatuur 19°C
Vochtigheid 46%
Druk 1017 hPa
Zicht 10 km of meer
Weinig wolken op 4000 ft

METAR: FACT 171200Z 18020KT 9999 FEW040 19/07 Q1017 NOSIG

Tijdstip: 14:16 (12:16 UTC)

Verwachting

Dit bericht is 2 uur en het 16 minuten geleden gemaakt, om 10:00 UTC
Verwachting geldig van 17 om 12 UTC tot 18 om 18 UTC
Wind 18 kt uit het zuiden
Zicht 10 km of meer
Verspreide wolken op 4000 ft
Van 18 om 0600 UTC
Wind 12 kt uit het zuiden
Zicht 10 km of meer
Weinig wolken op 3000 ft

TAF: FACT 171000Z 1712/1818 18018KT 9999 SCT040 TX20/1712Z TN09/1804Z FM180600 17012KT 9999 FEW030

Waarnemingen en weersverwachtingen van meer dan 4000 vliegvelden (METAR en TAF).

De beschikbare stations zijn de gele en rode punten op de kaart.

Ga met uw muis naar het station om de naam te zien.

Klik dan om waarnemingen en weersverwachtingen te zien.

kaart wijzigen: klik op de groene knoppen met een zwart kruis om in te zoomen, op de groene knop met een streepje om uit te zoomen of op de groene pijlen voor aangrenzende kaarten.


METAR-TAF: